»·PEaware :: N6870P KSBA-KBUR

N6870P :: KSBA-KBUR

FLIGHT INFORMATION

Flight Status: Arrived
Operator: Privately registered:
United States
More flights under this callsign
Pilot: Larry J. (31147)
Aircraft: PIPER PA-24 COMMANCHE
(PA24)
More flights by this aircraft type
Origin: KSBA Santa Barbara Mun
United States
Destination: KBUR Bob Hope-Burbank
United States
More flights between these airports :: More routes between these airports
Route: KSBA FIM KBUR
File this flight plan on PilotEdge
Remarks:
Altitude:
(Current/Filed)
7,500ft
Speed:
(Current/Filed)
160kts
Departed: 24-Sep-20 09:42 AM
Arrived: 24-Sep-20 10:21 AM
Distance/Time
Traveled:
75nm/0:39
Distance/Time
To Go:
Arrived

Flight Plot

Page will automatically refresh every two minutes.


Map Options




Map Legend


Flown Route
Filed Route
Departure Airport
Arrival Airport
Navaid (VOR, NDB)
Fix

Horizontal Profiles

Position Reports

Time Latitude Longitude Heading Altitude Ground
Speed
24-Sep-20 09:27 34.429324 -119.844045 111 12ft 0kts
24-Sep-20 09:28 34.429324 -119.844045 111 12ft 0kts
24-Sep-20 09:29 34.429324 -119.844045 111 12ft 0kts
24-Sep-20 09:30 34.429324 -119.844045 111 12ft 0kts
24-Sep-20 09:31 34.429324 -119.844045 111 12ft 0kts
24-Sep-20 09:32 34.429324 -119.844045 111 12ft 0kts
24-Sep-20 09:33 34.429324 -119.844045 111 12ft 0kts
24-Sep-20 09:34 34.429324 -119.844045 111 12ft 0kts
24-Sep-20 09:35 34.429324 -119.844045 111 12ft 0kts
24-Sep-20 09:36 34.429324 -119.844045 111 12ft 0kts
24-Sep-20 09:37 34.429324 -119.844045 111 12ft 0kts
24-Sep-20 09:38 34.429292 -119.843935 106 12ft 5kts
24-Sep-20 09:39 34.429766 -119.842277 63 12ft 5kts
24-Sep-20 09:40 34.429806 -119.842181 65 12ft 0kts
24-Sep-20 09:41 34.425037 -119.839842 167 30ft 89kts
24-Sep-20 09:42 34.394166 -119.835031 174 628ft 124kts
24-Sep-20 09:43 34.361618 -119.825704 163 1360ft 110kts
24-Sep-20 09:44 34.367566 -119.805137 98 2914ft 95kts
24-Sep-20 09:45 34.364482 -119.773362 94 4381ft 106kts
24-Sep-20 09:46 34.370922 -119.738184 91 5657ft 123kts
24-Sep-20 09:47 34.367195 -119.696512 93 6991ft 120kts
24-Sep-20 09:48 34.364662 -119.651237 85 7508ft 162kts
24-Sep-20 09:49 34.365112 -119.597518 89 7499ft 160kts
24-Sep-20 09:50 34.364620 -119.543666 89 7499ft 160kts
24-Sep-20 09:51 34.364183 -119.489896 89 7499ft 160kts
24-Sep-20 09:52 34.363708 -119.436011 89 7499ft 160kts
24-Sep-20 09:53 34.363175 -119.382264 89 7499ft 159kts
24-Sep-20 09:54 34.362646 -119.328785 89 7499ft 157kts
24-Sep-20 09:55 34.362092 -119.275707 89 7499ft 157kts
24-Sep-20 09:56 34.361646 -119.222745 88 7500ft 157kts
24-Sep-20 09:57 34.361471 -119.169805 89 7499ft 158kts
24-Sep-20 09:58 34.360847 -119.115079 89 7499ft 165kts
24-Sep-20 09:59 34.359980 -119.059511 89 7499ft 164kts
24-Sep-20 10:00 34.359395 -119.004282 89 7499ft 164kts
24-Sep-20 10:01 34.358693 -118.949128 89 7499ft 164kts
24-Sep-20 10:02 34.357507 -118.893931 89 7499ft 164kts
24-Sep-20 10:04 34.342094 -118.856161 120 6880ft 100kts
24-Sep-20 10:05 34.324638 -118.824391 123 6205ft 115kts
24-Sep-20 10:06 34.306486 -118.793073 123 5496ft 113kts
24-Sep-20 10:07 34.288526 -118.761842 123 4793ft 113kts
24-Sep-20 10:08 34.270471 -118.730269 123 4098ft 117kts
24-Sep-20 10:09 34.251741 -118.697970 123 3503ft 113kts
24-Sep-20 10:10 34.234792 -118.668611 122 3501ft 106kts
24-Sep-20 10:11 34.217557 -118.638793 123 3495ft 105kts
24-Sep-20 10:12 34.201711 -118.611403 117 3500ft 96kts
24-Sep-20 10:13 34.201329 -118.579360 89 3498ft 96kts
24-Sep-20 10:14 34.200778 -118.547091 88 3499ft 96kts
24-Sep-20 10:15 34.200363 -118.514746 88 3499ft 96kts
24-Sep-20 10:16 34.199939 -118.482511 86 3499ft 96kts
24-Sep-20 10:17 34.200394 -118.450232 87 3500ft 96kts
24-Sep-20 10:18 34.199638 -118.419155 91 2338ft 84kts
24-Sep-20 10:18 34.198237 -118.396112 88 1339ft 85kts
24-Sep-20 10:20 34.197911 -118.365851 85 724ft 55kts
24-Sep-20 10:21 34.198580 -118.360235 4 715ft 0kts
24-Sep-20 10:21 34.198580 -118.360235 4 715ft 0kts
24-Sep-20 10:23 34.199611 -118.360060 71 719ft 0kts

Navigation Log

Ident Type
Flight plan parsing failed, navigation log unavailable